SBAT

Alta Floresta Airport

Alta Floresta, Brazil
TAF SBAT 200400Z 2006/2018 34003KT 8000 FEW015 TN21/2007Z TX32/2015Z BECMG 2013/2015 02005KT FEW020 FM201700 01005KT 8000 TSRA SCT032TCU RMK PAY
Issued Valid From Valid To
Jan-20 @ 04:00 UTC
(8 hours ago)
Jan-20 @ 06:00 UTC
(6 hours ago)
Jan-20 @ 18:00 UTC
(in 6 hours)
Jan-20 @ 06:00 to Jan-20 @ 13:00
TAF SBAT 200400Z 2006/2018 34003KT 8000 FEW015 TN21/2007Z TX32/2015Z
Wind Visibility Clouds
340° at 3 knots 7,998 meters
  • Few at 1,500' AGL
Becoming Jan-20 @ 13:00 to Jan-20 @ 17:00
BECMG 2013/2015 02005KT FEW020
Wind Visibility Clouds
20° at 5 knots 7,998 meters
  • Few at 2,000' AGL
From Jan-20 @ 17:00 to Jan-20 @ 18:00
FM201700 01005KT 8000 TSRA SCT032TCU RMK PAY
Wind Visibility Clouds Conditions
10° at 5 knots 7,998 meters
  • Scattered at 3,200' AGL
  • Thunderstorm
  • Rain
TAF SBAT 200400Z 2006/2018 34003KT 8000 FEW015 TN21/2007Z TX32/2015Z BECMG 2013/2015 02005KT FEW020 FM201700 01005KT 8000 TSRA SCT032TCU RMK PAY
Issued Jan-20 @ 04:00 UTC
(8 hours ago)
Valid From Jan-20 @ 06:00 UTC
(6 hours ago)
Valid To Jan-20 @ 18:00 UTC
(in 6 hours)
Jan-20 @ 06:00 - Jan-20 @ 13:00
Wind Visibility
340° at 3 knots 7,998 meters
Clouds
  • Few at 1,500' AGL
Becoming Jan-20 @ 13:00 - Jan-20 @ 17:00
Wind Visibility
20° at 5 knots 7,998 meters
Clouds
  • Few at 2,000' AGL
From Jan-20 @ 17:00 - Jan-20 @ 18:00
Wind Visibility
10° at 5 knots 7,998 meters
Clouds
  • Scattered at 3,200' AGL
Conditions
  • Thunderstorm
  • Rain